Terminal Aerodrome Forecast
Issued by NWS Charleston, WV

Current Version | Previous Version | Text Only | Print | Product List | Glossary Off
Versions: 1 2 3 4 5 6 7 8 9 10 11 12 13 14 15 16 17 18 19 20 21 22

000
FTUS41 KRLX 271700
TAFEKN
TAF
KEKN 271735Z 2718/2818 32005KT P6SM BKN026
     FM272300 00000KT P6SM SCT030
     FM281100 VRB03KT 6SM FU BKN100
     FM281500 VRB03KT P6SM BKN080=

USA.gov is the U.S. government's official web portal to all federal, state and local government web resources and services.